createdAt,value
2023-04-30T00:02:17.417Z,4.27
2023-04-30T00:04:47.377Z,4.73
2023-04-30T00:07:15.805Z,5.83
2023-04-30T00:09:44.132Z,5.10
2023-04-30T00:12:12.405Z,4.70
2023-04-30T00:14:40.836Z,4.93
2023-04-30T00:17:09.121Z,5.40
2023-04-30T00:19:37.474Z,4.60
2023-04-30T00:22:07.420Z,5.00
2023-04-30T00:24:35.758Z,4.77
2023-04-30T00:27:04.031Z,4.60
2023-04-30T00:29:32.366Z,4.53
2023-04-30T00:32:00.646Z,4.60
2023-04-30T00:34:28.989Z,4.60
2023-04-30T00:36:57.234Z,5.03
2023-04-30T00:39:26.989Z,4.63
2023-04-30T00:41:55.333Z,4.17
2023-04-30T00:44:23.605Z,4.83
2023-04-30T00:46:51.849Z,5.00
2023-04-30T00:49:20.324Z,4.80
2023-04-30T00:51:49.146Z,4.63
2023-04-30T00:54:17.983Z,4.70
2023-04-30T00:56:47.972Z,4.90
2023-04-30T00:59:16.737Z,5.03
2023-04-30T01:01:45.161Z,5.53
2023-04-30T01:04:13.968Z,5.03
2023-04-30T01:06:43.431Z,5.10
2023-04-30T01:09:12.006Z,4.77
2023-04-30T01:11:51.302Z,4.60
2023-04-30T01:14:27.302Z,4.87
2023-04-30T01:17:06.114Z,5.07
2023-04-30T01:19:43.334Z,5.23
2023-04-30T01:22:16.141Z,5.20
2023-04-30T01:25:07.996Z,6.00
2023-04-30T01:28:03.886Z,5.00
2023-04-30T01:30:33.206Z,5.67
2023-04-30T01:33:02.170Z,5.07
2023-04-30T01:35:46.265Z,5.43
2023-04-30T01:38:24.981Z,5.70
2023-04-30T01:40:59.600Z,5.53
2023-04-30T01:43:40.971Z,5.40
2023-04-30T01:46:19.420Z,5.40
2023-04-30T01:48:54.916Z,5.00
2023-04-30T01:51:32.356Z,5.50
2023-04-30T01:54:06.824Z,5.70
2023-04-30T01:56:45.710Z,5.97
2023-04-30T01:59:16.699Z,5.77
2023-04-30T02:01:44.995Z,5.23
2023-04-30T02:04:13.388Z,5.20
2023-04-30T02:06:41.816Z,5.57
2023-04-30T02:09:10.800Z,5.20
2023-04-30T02:11:39.166Z,4.90
2023-04-30T02:14:07.509Z,5.50
2023-04-30T02:16:37.581Z,4.87
2023-04-30T02:19:05.916Z,4.83
2023-04-30T02:21:34.233Z,5.23
2023-04-30T02:24:02.696Z,4.80
2023-04-30T02:26:31.078Z,5.30
2023-04-30T02:29:00.382Z,4.60
2023-04-30T02:31:28.726Z,5.60
2023-04-30T02:33:58.688Z,5.33
2023-04-30T02:36:27.283Z,4.80
2023-04-30T02:38:55.721Z,4.50
2023-04-30T02:41:24.026Z,4.73
2023-04-30T02:43:52.929Z,5.00
2023-04-30T02:46:21.228Z,5.60
2023-04-30T02:48:51.012Z,5.10
2023-04-30T02:51:20.689Z,5.70
2023-04-30T02:53:49.710Z,4.87
2023-04-30T02:56:17.939Z,5.33
2023-04-30T02:58:46.639Z,5.27
2023-04-30T03:01:15.588Z,5.30
2023-04-30T03:03:44.038Z,5.10
2023-04-30T03:06:12.304Z,5.30
2023-04-30T03:08:41.992Z,5.83
2023-04-30T03:11:10.461Z,4.53
2023-04-30T03:13:38.670Z,4.70
2023-04-30T03:16:07.081Z,4.93
2023-04-30T03:18:35.376Z,5.00
2023-04-30T03:21:03.684Z,4.83
2023-04-30T03:23:32.269Z,5.40
2023-04-30T03:26:01.957Z,4.93
2023-04-30T03:28:30.438Z,4.73
2023-04-30T03:30:59.322Z,4.60
2023-04-30T03:33:27.654Z,4.50
2023-04-30T03:35:56.110Z,4.30
2023-04-30T03:38:24.496Z,4.60
2023-04-30T03:40:52.941Z,4.90
2023-04-30T03:43:23.463Z,4.37
2023-04-30T03:45:52.322Z,4.53
2023-04-30T03:48:21.573Z,5.00
2023-04-30T03:50:50.091Z,4.50
2023-04-30T03:53:18.435Z,4.33
2023-04-30T03:55:46.820Z,4.60
2023-04-30T03:58:15.127Z,4.27
2023-04-30T04:00:45.834Z,4.10
2023-04-30T04:03:14.305Z,4.10
2023-04-30T04:05:42.791Z,4.00
2023-04-30T04:08:12.048Z,4.47
2023-04-30T04:10:41.212Z,3.90
2023-04-30T04:13:09.639Z,4.33
2023-04-30T04:15:37.943Z,4.90
2023-04-30T04:18:08.741Z,4.57
2023-04-30T04:20:37.170Z,4.67
2023-04-30T04:23:05.491Z,4.57
2023-04-30T04:25:34.357Z,4.83
2023-04-30T04:28:02.600Z,5.07
2023-04-30T04:30:30.937Z,4.70
2023-04-30T04:33:00.531Z,4.10
2023-04-30T04:35:30.300Z,4.83
2023-04-30T04:37:59.163Z,5.20
2023-04-30T04:40:28.297Z,4.73
2023-04-30T04:42:58.147Z,4.80
2023-04-30T04:45:26.358Z,4.30
2023-04-30T04:47:54.676Z,4.13
2023-04-30T04:50:23.070Z,4.83
2023-04-30T04:52:52.784Z,4.90
2023-04-30T04:55:21.123Z,5.07
2023-04-30T04:57:49.348Z,4.37
2023-04-30T05:00:18.630Z,4.43
2023-04-30T05:02:46.973Z,4.13
2023-04-30T05:05:15.318Z,4.47
2023-04-30T05:07:44.511Z,4.73
2023-04-30T05:10:14.234Z,3.83
2023-04-30T05:12:42.621Z,4.07
2023-04-30T05:15:11.587Z,4.20
2023-04-30T05:17:39.891Z,4.10
2023-04-30T05:20:09.618Z,4.47
2023-04-30T05:22:37.995Z,3.60
2023-04-30T05:25:07.290Z,3.63
2023-04-30T05:27:37.421Z,3.60
2023-04-30T05:30:06.897Z,4.03
2023-04-30T05:32:36.022Z,3.77
2023-04-30T05:35:04.508Z,3.67
2023-04-30T05:37:32.844Z,3.60
2023-04-30T05:40:01.110Z,3.37
2023-04-30T05:42:29.346Z,3.57
2023-04-30T05:44:59.049Z,4.47
2023-04-30T05:47:27.269Z,3.70
2023-04-30T05:49:56.370Z,4.23
2023-04-30T05:52:24.860Z,3.53
2023-04-30T05:54:54.063Z,3.90
2023-04-30T05:57:22.432Z,3.80
2023-04-30T05:59:50.869Z,4.43
2023-04-30T06:02:20.543Z,4.03
2023-04-30T06:04:49.331Z,4.00
2023-04-30T06:07:17.730Z,3.97
2023-04-30T06:09:45.929Z,4.57
2023-04-30T06:12:14.321Z,3.63
2023-04-30T06:14:45.505Z,3.80
2023-04-30T06:17:13.956Z,3.97
2023-04-30T06:19:43.613Z,4.50
2023-04-30T06:22:11.839Z,3.70
2023-04-30T06:24:40.128Z,4.47
2023-04-30T06:27:08.380Z,5.27
2023-04-30T06:29:36.773Z,4.30
2023-04-30T06:32:07.038Z,4.47
2023-04-30T06:34:37.120Z,4.33
2023-04-30T06:37:07.003Z,4.30
2023-04-30T06:39:35.411Z,4.13
2023-04-30T06:42:04.027Z,3.80
2023-04-30T06:44:33.253Z,4.63
2023-04-30T06:47:01.513Z,4.13
2023-04-30T06:49:29.760Z,3.80
2023-04-30T06:51:58.714Z,4.53
2023-04-30T06:54:28.426Z,4.03
2023-04-30T06:56:57.025Z,4.93
2023-04-30T06:59:25.471Z,3.67
2023-04-30T07:01:53.869Z,3.20
2023-04-30T07:04:22.242Z,4.63
2023-04-30T07:06:51.359Z,3.80
2023-04-30T07:09:19.835Z,5.83
2023-04-30T07:11:50.458Z,4.33
2023-04-30T07:14:18.747Z,3.70
2023-04-30T07:16:47.014Z,3.73
2023-04-30T07:19:15.296Z,3.80
2023-04-30T07:21:43.885Z,3.70
2023-04-30T07:24:12.179Z,4.17
2023-04-30T07:26:40.436Z,4.20
2023-04-30T07:29:10.356Z,4.13
2023-04-30T07:31:38.750Z,4.30
2023-04-30T07:34:07.148Z,4.40
2023-04-30T07:36:35.866Z,3.83
2023-04-30T07:39:05.570Z,4.23
2023-04-30T07:41:33.969Z,4.30
2023-04-30T07:44:02.407Z,4.47
2023-04-30T07:46:32.162Z,4.00
2023-04-30T07:49:00.654Z,4.10
2023-04-30T07:51:29.215Z,4.90
2023-04-30T07:53:57.524Z,4.53
2023-04-30T07:56:25.827Z,5.20
2023-04-30T07:58:54.183Z,4.80
2023-04-30T08:01:22.589Z,4.10
2023-04-30T08:03:52.321Z,4.27
2023-04-30T08:06:20.860Z,3.90
2023-04-30T08:08:50.502Z,4.63
2023-04-30T08:11:18.830Z,4.07
2023-04-30T08:13:47.403Z,4.03
2023-04-30T08:16:15.889Z,4.30
2023-04-30T08:18:46.331Z,3.77
2023-04-30T08:21:16.455Z,4.17
2023-04-30T08:23:44.869Z,4.70
2023-04-30T08:26:13.144Z,3.90
2023-04-30T08:28:41.510Z,4.30
2023-04-30T08:31:09.786Z,4.47
2023-04-30T08:33:38.043Z,4.03
2023-04-30T08:36:06.786Z,4.57
2023-04-30T08:38:36.717Z,4.13
2023-04-30T08:41:11.523Z,4.17
2023-04-30T08:43:40.188Z,4.57
2023-04-30T08:46:09.174Z,4.97
2023-04-30T08:48:37.721Z,4.73
2023-04-30T08:51:06.639Z,4.77
2023-04-30T08:53:39.149Z,4.87
2023-04-30T08:56:08.104Z,4.63
2023-04-30T08:58:36.384Z,3.90
2023-04-30T09:01:05.562Z,4.27
2023-04-30T09:03:34.141Z,3.73
2023-04-30T09:06:02.468Z,5.07
2023-04-30T09:08:47.033Z,3.70
2023-04-30T09:11:25.994Z,4.40
2023-04-30T09:13:57.489Z,4.07
2023-04-30T09:16:26.782Z,4.10
2023-04-30T09:18:56.812Z,5.27
2023-04-30T09:21:35.367Z,3.97
2023-04-30T09:24:06.676Z,5.30
2023-04-30T09:26:36.408Z,4.70
2023-04-30T09:29:08.865Z,4.33
2023-04-30T09:31:38.174Z,4.63
2023-04-30T09:34:06.893Z,4.47
2023-04-30T09:36:35.934Z,4.70
2023-04-30T09:39:14.815Z,3.77
2023-04-30T09:41:43.891Z,4.10
2023-04-30T09:44:29.762Z,5.40
2023-04-30T09:46:59.431Z,4.10
2023-04-30T09:49:28.297Z,4.10
2023-04-30T09:51:57.700Z,3.93
2023-04-30T09:54:30.382Z,4.03
2023-04-30T09:57:00.224Z,4.57
2023-04-30T09:59:35.510Z,3.70
2023-04-30T10:02:05.808Z,4.17
2023-04-30T10:04:36.235Z,4.03
2023-04-30T10:07:07.943Z,4.00
2023-04-30T10:09:42.766Z,4.17
2023-04-30T10:12:16.569Z,4.70
2023-04-30T10:14:52.825Z,3.60
2023-04-30T10:17:25.336Z,4.60
2023-04-30T10:19:56.627Z,4.20
2023-04-30T10:22:25.411Z,4.13
2023-04-30T10:24:55.933Z,4.23
2023-04-30T10:27:24.345Z,3.87
2023-04-30T10:29:53.120Z,3.80
2023-04-30T10:32:23.013Z,4.87
2023-04-30T10:35:00.567Z,3.80
2023-04-30T10:37:47.598Z,3.50
2023-04-30T10:40:17.567Z,4.00
2023-04-30T10:42:47.707Z,3.80
2023-04-30T10:45:17.829Z,4.13
2023-04-30T10:47:47.072Z,4.10
2023-04-30T10:50:15.487Z,4.27
2023-04-30T10:52:45.741Z,4.13
2023-04-30T10:55:20.302Z,4.07
2023-04-30T10:57:50.059Z,3.63
2023-04-30T11:00:25.981Z,4.07
2023-04-30T11:02:58.702Z,4.00
2023-04-30T11:05:37.928Z,4.20
2023-04-30T11:08:07.098Z,3.70
2023-04-30T11:10:37.232Z,3.93
2023-04-30T11:13:07.830Z,3.50
2023-04-30T11:15:41.587Z,3.50
2023-04-30T11:18:10.828Z,3.50
2023-04-30T11:20:42.061Z,3.60
2023-04-30T11:23:11.687Z,3.90
2023-04-30T11:25:45.735Z,4.20
2023-04-30T11:28:17.839Z,4.63
2023-04-30T11:30:53.778Z,3.83
2023-04-30T11:33:22.963Z,4.17
2023-04-30T11:35:53.381Z,4.10
2023-04-30T11:38:24.480Z,4.33
2023-04-30T11:40:55.102Z,4.10
2023-04-30T11:43:29.729Z,3.73
2023-04-30T11:46:07.493Z,3.73
2023-04-30T11:48:37.097Z,3.63
2023-04-30T11:51:07.476Z,4.03
2023-04-30T11:53:35.714Z,3.67
2023-04-30T11:56:06.498Z,4.30
2023-04-30T11:58:40.163Z,4.00
2023-04-30T12:01:09.783Z,4.20
2023-04-30T12:03:45.458Z,4.10
2023-04-30T12:06:14.351Z,4.10
2023-04-30T12:08:44.024Z,3.90
2023-04-30T12:11:25.553Z,4.47
2023-04-30T12:13:55.456Z,4.13
2023-04-30T12:16:25.251Z,4.67
2023-04-30T12:18:53.587Z,4.80
2023-04-30T12:21:23.589Z,4.57
2023-04-30T12:23:52.153Z,5.40
2023-04-30T12:26:21.101Z,5.10
2023-04-30T12:28:51.236Z,5.20
2023-04-30T12:31:19.908Z,5.60
2023-04-30T12:33:56.517Z,5.37
2023-04-30T12:36:31.713Z,4.97
2023-04-30T12:39:10.196Z,4.80
2023-04-30T12:41:41.630Z,4.63
2023-04-30T12:44:19.043Z,4.70
2023-04-30T12:46:48.297Z,5.40
2023-04-30T12:49:26.912Z,4.57
2023-04-30T12:52:01.442Z,4.40
2023-04-30T12:54:30.478Z,4.50
2023-04-30T12:57:03.543Z,4.90
2023-04-30T12:59:34.855Z,4.70
2023-04-30T13:02:10.723Z,4.90
2023-04-30T13:04:39.193Z,4.60
2023-04-30T13:07:07.620Z,5.03
2023-04-30T13:09:36.964Z,4.50
2023-04-30T13:12:06.565Z,5.17
2023-04-30T13:14:36.652Z,4.20
2023-04-30T13:17:07.227Z,5.03
2023-04-30T13:19:35.538Z,4.60
2023-04-30T13:22:04.054Z,4.80
2023-04-30T13:24:32.465Z,4.60
2023-04-30T13:27:00.843Z,4.43
2023-04-30T13:29:29.122Z,4.57
2023-04-30T13:31:59.380Z,4.27
2023-04-30T13:34:27.688Z,4.80
2023-04-30T13:36:55.981Z,5.10
2023-04-30T13:39:24.323Z,4.73
2023-04-30T13:41:52.690Z,4.53
2023-04-30T13:44:20.947Z,5.20
2023-04-30T13:46:50.375Z,4.90
2023-04-30T13:49:20.145Z,5.20
2023-04-30T13:51:48.559Z,4.60
2023-04-30T13:54:16.854Z,4.77
2023-04-30T13:56:45.173Z,4.60
2023-04-30T13:59:13.435Z,4.90
2023-04-30T14:01:42.223Z,4.53
2023-04-30T14:04:10.564Z,4.83
2023-04-30T14:06:40.325Z,4.80
2023-04-30T14:09:08.959Z,4.50
2023-04-30T14:11:37.204Z,4.40
2023-04-30T14:14:05.914Z,4.70
2023-04-30T14:16:34.414Z,5.30
2023-04-30T14:19:02.916Z,4.50
2023-04-30T14:21:31.502Z,4.37
2023-04-30T14:24:01.306Z,4.37
2023-04-30T14:26:29.727Z,4.80
2023-04-30T14:28:58.844Z,4.63
2023-04-30T14:31:27.338Z,4.83
2023-04-30T14:33:55.906Z,4.53
2023-04-30T14:36:24.229Z,4.50
2023-04-30T14:38:52.750Z,4.10
2023-04-30T14:41:22.458Z,4.63
2023-04-30T14:43:52.762Z,4.57
2023-04-30T14:46:21.139Z,5.00
2023-04-30T14:48:49.647Z,4.70
2023-04-30T14:51:17.911Z,4.60
2023-04-30T14:53:46.155Z,5.43
2023-04-30T14:56:14.543Z,4.50
2023-04-30T14:58:44.428Z,4.70
2023-04-30T15:01:12.658Z,5.00
2023-04-30T15:03:41.149Z,4.73
2023-04-30T15:06:09.702Z,5.23
2023-04-30T15:08:38.076Z,5.23
2023-04-30T15:11:07.286Z,4.70
2023-04-30T15:13:35.466Z,4.40
2023-04-30T15:16:05.489Z,4.10
2023-04-30T15:18:34.328Z,5.37
2023-04-30T15:21:02.788Z,4.40
2023-04-30T15:23:31.918Z,3.67
2023-04-30T15:26:00.162Z,4.37
2023-04-30T15:28:29.088Z,3.43
2023-04-30T15:30:57.382Z,3.90
2023-04-30T15:33:28.888Z,3.70
2023-04-30T15:35:57.388Z,3.50
2023-04-30T15:38:25.682Z,3.33
2023-04-30T15:40:53.889Z,3.43
2023-04-30T15:43:23.313Z,3.57
2023-04-30T15:45:51.594Z,3.20
2023-04-30T15:48:19.951Z,3.50
2023-04-30T15:50:50.513Z,3.43
2023-04-30T15:53:18.784Z,4.10
2023-04-30T15:55:47.976Z,3.40
2023-04-30T15:58:16.531Z,3.60
2023-04-30T16:00:45.051Z,3.83
2023-04-30T16:03:13.425Z,3.80
2023-04-30T16:05:42.378Z,3.53
2023-04-30T16:08:12.307Z,3.70
2023-04-30T16:10:40.647Z,3.60
2023-04-30T16:13:09.992Z,4.20
2023-04-30T16:15:38.267Z,3.40
2023-04-30T16:18:07.987Z,4.87
2023-04-30T16:20:36.821Z,5.27
2023-04-30T16:23:06.125Z,4.00
2023-04-30T16:25:35.944Z,4.03
2023-04-30T16:28:04.316Z,4.17
2023-04-30T16:30:33.924Z,4.27
2023-04-30T16:33:02.294Z,3.60
2023-04-30T16:35:31.693Z,4.30
2023-04-30T16:37:59.950Z,4.10
2023-04-30T16:40:28.286Z,4.30
2023-04-30T16:42:59.088Z,3.70
2023-04-30T16:45:27.503Z,4.20
2023-04-30T16:47:56.577Z,3.90
2023-04-30T16:50:26.877Z,3.60
2023-04-30T16:52:55.265Z,3.53
2023-04-30T16:55:23.600Z,5.63
2023-04-30T16:57:53.931Z,3.77
2023-04-30T17:00:23.959Z,4.70
2023-04-30T17:02:53.363Z,4.10
2023-04-30T17:05:22.542Z,4.53
2023-04-30T17:07:50.893Z,4.50
2023-04-30T17:10:19.665Z,4.83
2023-04-30T17:12:48.046Z,4.87
2023-04-30T17:15:18.311Z,4.97
2023-04-30T17:17:48.518Z,4.80
2023-04-30T17:20:16.859Z,5.67
2023-04-30T17:22:45.145Z,5.30
2023-04-30T17:25:13.455Z,5.53
2023-04-30T17:27:41.755Z,4.30
2023-04-30T17:30:10.818Z,4.33
2023-04-30T17:32:39.523Z,4.73
2023-04-30T17:35:09.508Z,3.97
2023-04-30T17:37:37.910Z,4.43
2023-04-30T17:40:07.762Z,6.63
2023-04-30T17:42:36.083Z,5.70
2023-04-30T17:45:04.541Z,6.20
2023-04-30T17:47:33.098Z,4.67
2023-04-30T17:50:04.667Z,5.53
2023-04-30T17:52:38.583Z,5.70
2023-04-30T17:55:08.406Z,11.30
2023-04-30T17:57:36.862Z,7.70
2023-04-30T18:00:07.183Z,6.80
2023-04-30T18:02:35.562Z,7.40
2023-04-30T18:05:03.905Z,8.70
2023-04-30T18:07:33.656Z,7.00
2023-04-30T18:10:01.914Z,6.93
2023-04-30T18:12:31.013Z,6.83
2023-04-30T18:15:00.773Z,6.20
2023-04-30T18:17:29.077Z,6.40
2023-04-30T18:19:57.688Z,5.30
2023-04-30T18:22:26.123Z,5.23
2023-04-30T18:24:56.028Z,4.73
2023-04-30T18:27:24.326Z,5.13
2023-04-30T18:29:52.793Z,4.73
2023-04-30T18:32:21.263Z,5.10
2023-04-30T18:34:49.748Z,4.90
2023-04-30T18:37:18.124Z,4.53
2023-04-30T18:39:46.356Z,4.83
2023-04-30T18:42:16.178Z,5.00
2023-04-30T18:44:44.476Z,5.40
2023-04-30T18:47:12.802Z,6.80
2023-04-30T18:49:41.509Z,6.27
2023-04-30T18:52:10.154Z,10.67
2023-04-30T18:54:38.601Z,13.80
2023-04-30T18:57:08.013Z,10.60
2023-04-30T18:59:39.263Z,11.37
2023-04-30T19:02:07.957Z,9.90
2023-04-30T19:04:36.593Z,8.77
2023-04-30T19:07:04.849Z,8.10
2023-04-30T19:09:37.110Z,8.00
2023-04-30T19:12:06.525Z,7.27
2023-04-30T19:14:34.955Z,8.00
2023-04-30T19:17:05.161Z,9.90
2023-04-30T19:19:34.219Z,8.80
2023-04-30T19:22:02.451Z,8.70
2023-04-30T19:24:30.843Z,7.80
2023-04-30T19:26:59.123Z,8.43
2023-04-30T19:29:29.640Z,9.53
2023-04-30T19:31:59.639Z,11.77
2023-04-30T19:34:29.564Z,11.40
2023-04-30T19:36:58.440Z,10.90
2023-04-30T19:39:31.935Z,10.50
2023-04-30T19:42:00.349Z,10.93
2023-04-30T19:44:29.502Z,8.90
2023-04-30T19:46:58.322Z,7.90
2023-04-30T19:49:26.886Z,7.70
2023-04-30T19:51:56.663Z,8.30
2023-04-30T19:54:24.919Z,8.40
2023-04-30T19:56:54.972Z,7.07
2023-04-30T19:59:23.537Z,7.33
2023-04-30T20:01:53.546Z,11.00
2023-04-30T20:04:21.859Z,6.70
2023-04-30T20:06:56.981Z,7.50
2023-04-30T20:09:26.930Z,6.30
2023-04-30T20:11:56.448Z,7.10
2023-04-30T20:14:25.044Z,6.13
2023-04-30T20:16:54.985Z,5.43
2023-04-30T20:19:23.509Z,5.83
2023-04-30T20:21:52.076Z,5.13
2023-04-30T20:24:21.853Z,5.67
2023-04-30T20:26:51.497Z,4.53
2023-04-30T20:29:20.772Z,5.30
2023-04-30T20:31:49.248Z,5.10
2023-04-30T20:34:17.703Z,5.80
2023-04-30T20:36:45.936Z,5.50
2023-04-30T20:39:14.735Z,5.07
2023-04-30T20:41:44.068Z,6.67
2023-04-30T20:44:14.022Z,7.23
2023-04-30T20:46:43.255Z,5.67
2023-04-30T20:49:12.400Z,6.30
2023-04-30T20:51:40.680Z,6.27
2023-04-30T20:54:09.835Z,5.60
2023-04-30T20:56:38.626Z,6.10
2023-04-30T20:59:06.951Z,5.30
2023-04-30T21:01:37.061Z,6.20
2023-04-30T21:04:05.618Z,5.70
2023-04-30T21:06:34.160Z,8.43
2023-04-30T21:09:02.460Z,8.00
2023-04-30T21:11:30.949Z,9.87
2023-04-30T21:13:59.212Z,12.13
2023-04-30T21:16:28.926Z,7.00
2023-04-30T21:18:58.839Z,8.53
2023-04-30T21:21:27.521Z,6.40
2023-04-30T21:23:55.874Z,6.17
2023-04-30T21:26:24.342Z,6.43
2023-04-30T21:28:52.857Z,4.70
2023-04-30T21:31:21.328Z,5.30
2023-04-30T21:33:49.574Z,5.43
2023-04-30T21:36:20.380Z,5.63
2023-04-30T21:38:48.743Z,5.30
2023-04-30T21:41:18.177Z,5.47
2023-04-30T21:43:46.544Z,5.90
2023-04-30T21:46:14.955Z,6.37
2023-04-30T21:48:43.374Z,7.03
2023-04-30T21:51:15.357Z,7.83
2023-04-30T21:53:45.913Z,8.33
2023-04-30T21:56:14.900Z,8.30
2023-04-30T21:58:43.695Z,8.43
2023-04-30T22:01:12.414Z,7.07
2023-04-30T22:03:42.670Z,5.93
2023-04-30T22:06:11.240Z,5.80
2023-04-30T22:08:39.584Z,5.07
2023-04-30T22:11:09.351Z,5.60
2023-04-30T22:13:37.855Z,5.73
2023-04-30T22:16:06.766Z,5.10
2023-04-30T22:18:35.337Z,4.93
2023-04-30T22:21:03.838Z,4.97
2023-04-30T22:23:32.336Z,4.97
2023-04-30T22:26:01.356Z,4.00
2023-04-30T22:28:31.006Z,4.60
2023-04-30T22:31:00.392Z,4.80
2023-04-30T22:33:28.710Z,5.07
2023-04-30T22:35:57.333Z,4.83
2023-04-30T22:38:25.657Z,5.00
2023-04-30T22:40:54.123Z,4.93
2023-04-30T22:43:22.770Z,4.87
2023-04-30T22:45:52.777Z,4.90
2023-04-30T22:48:21.061Z,4.57
2023-04-30T22:50:49.493Z,4.97
2023-04-30T22:53:17.806Z,4.40
2023-04-30T22:55:46.630Z,5.03
2023-04-30T22:58:14.909Z,4.93
2023-04-30T23:00:43.327Z,3.60
2023-04-30T23:03:13.115Z,4.37
2023-04-30T23:05:41.425Z,3.57
2023-04-30T23:08:09.691Z,4.10
2023-04-30T23:10:38.151Z,4.00
2023-04-30T23:13:06.464Z,3.30
2023-04-30T23:15:34.687Z,3.10
2023-04-30T23:18:05.325Z,3.77
2023-04-30T23:20:35.057Z,3.37
2023-04-30T23:23:03.304Z,4.20
2023-04-30T23:25:32.898Z,4.17
2023-04-30T23:28:01.323Z,5.50
2023-04-30T23:30:29.570Z,3.97
2023-04-30T23:32:58.210Z,3.67
2023-04-30T23:35:27.622Z,4.23
2023-04-30T23:37:57.642Z,3.50
2023-04-30T23:40:26.061Z,3.80
2023-04-30T23:42:55.864Z,4.13
2023-04-30T23:45:24.365Z,3.50
2023-04-30T23:47:52.892Z,3.80
2023-04-30T23:50:23.971Z,3.60
2023-04-30T23:52:52.492Z,3.17
2023-04-30T23:55:22.519Z,3.77
2023-04-30T23:57:50.853Z,3.37
